Time;durP1;ratioP1;P1;durP2;ratioP2;P2;SDS_P1;SDS_P2;PMS_P1;PMS_P2;Temp;Humidity;BMP_temperature;BMP_pressure;BME280_temperature;BME280_humidity;BME280_pressure;Samples;Min_cycle;Max_cycle;Signal;HPM_P1;HPM_P2
2023/12/05 00:02:14;;;;;;;7.47;2.97;;;4.40;99.90;;;;;;10070405;28;20029;-68
2023/12/05 00:07:05;;;;;;;5.40;2.80;;;4.40;99.90;;;;;;10069775;28;20048;-69
2023/12/05 00:11:55;;;;;;;4.40;2.58;;;4.40;99.90;;;;;;10063081;28;20483;-75
2023/12/05 00:16:46;;;;;;;3.70;2.72;;;4.50;99.90;;;;;;10064248;28;20037;-69
2023/12/05 00:21:37;;;;;;;6.15;3.28;;;4.50;99.90;;;;;;10060225;28;20033;-72
2023/12/05 00:26:28;;;;;;;3.10;2.13;;;4.50;99.90;;;;;;10075400;28;20064;-68
2023/12/05 00:31:18;;;;;;;3.55;2.13;;;4.50;99.90;;;;;;10068243;28;20029;-68
2023/12/05 00:36:09;;;;;;;4.20;2.17;;;4.60;99.90;;;;;;10070799;28;20478;-69
2023/12/05 00:41:00;;;;;;;4.20;2.10;;;4.70;99.90;;;;;;10070832;28;20036;-69
2023/12/05 00:45:51;;;;;;;3.40;1.60;;;4.70;99.90;;;;;;10061988;28;20600;-69
2023/12/05 00:50:42;;;;;;;2.88;1.58;;;4.70;99.90;;;;;;10076579;28;20029;-69
2023/12/05 00:55:35;;;;;;;3.92;1.85;;;4.80;99.90;;;;;;10079854;28;20041;-68
2023/12/05 01:00:26;;;;;;;3.47;2.10;;;4.90;99.90;;;;;;10073189;28;20025;-69
2023/12/05 01:05:16;;;;;;;3.78;1.80;;;4.90;99.90;;;;;;10073678;28;20021;-70
2023/12/05 01:10:07;;;;;;;2.78;1.60;;;5.00;99.90;;;;;;10044608;28;20729;-68
2023/12/05 01:14:58;;;;;;;3.92;1.75;;;5.00;99.90;;;;;;10064329;28;20639;-68
2023/12/05 01:19:49;;;;;;;3.35;1.60;;;5.00;99.90;;;;;;10059971;28;20024;-69
2023/12/05 01:24:41;;;;;;;2.72;1.55;;;5.00;99.90;;;;;;10067996;28;20122;-68
2023/12/05 01:29:32;;;;;;;2.65;1.48;;;5.10;99.90;;;;;;10070446;28;20025;-69
2023/12/05 01:34:22;;;;;;;3.50;1.85;;;5.10;99.90;;;;;;10066502;28;20068;-70
2023/12/05 01:39:13;;;;;;;2.55;1.70;;;5.00;99.90;;;;;;10061786;28;20017;-69
2023/12/05 01:44:04;;;;;;;2.88;1.55;;;5.10;99.90;;;;;;10059858;28;20040;-69
2023/12/05 01:48:55;;;;;;;3.45;2.15;;;5.00;99.90;;;;;;10072626;28;20045;-69
2023/12/05 01:53:46;;;;;;;1.75;1.50;;;5.10;99.90;;;;;;10079496;28;20570;-69
2023/12/05 01:58:37;;;;;;;3.22;2.15;;;5.00;99.90;;;;;;10072649;28;20048;-70
2023/12/05 02:03:27;;;;;;;3.53;1.80;;;5.00;99.90;;;;;;10060037;28;20056;-73
2023/12/05 02:08:20;;;;;;;3.28;1.80;;;5.00;99.90;;;;;;10074051;28;20025;-69
2023/12/05 02:13:11;;;;;;;4.30;2.08;;;5.00;99.90;;;;;;10063527;28;20037;-70
2023/12/05 02:18:15;;;;;;;2.85;1.88;;;4.90;99.90;;;;;;10057445;28;20037;-69
2023/12/05 02:23:31;;;;;;;2.80;1.90;;;4.90;99.90;;;;;;10079427;28;20101;-68
2023/12/05 02:28:24;;;;;;;3.47;1.58;;;5.00;99.90;;;;;;10065996;28;20030;-70
2023/12/05 02:33:14;;;;;;;2.45;1.50;;;4.90;99.90;;;;;;10064956;28;20048;-69
2023/12/05 02:38:18;;;;;;;1.95;1.25;;;5.00;99.90;;;;;;10062016;28;20072;-69
2023/12/05 02:43:15;;;;;;;2.60;1.35;;;5.00;99.90;;;;;;10057609;28;20394;-68
2023/12/05 02:48:11;;;;;;;3.20;1.58;;;5.10;99.90;;;;;;10066054;28;20017;-68
2023/12/05 02:53:01;;;;;;;2.92;1.90;;;5.10;99.90;;;;;;10063748;28;20037;-69
2023/12/05 02:57:52;;;;;;;2.45;1.45;;;5.00;99.90;;;;;;10064837;28;20090;-69
2023/12/05 03:02:43;;;;;;;2.00;1.35;;;5.10;99.90;;;;;;10065676;28;20030;-71
2023/12/05 03:07:33;;;;;;;2.03;1.10;;;5.10;99.90;;;;;;10067228;28;20029;-68
2023/12/05 03:12:24;;;;;;;3.10;1.88;;;5.10;99.90;;;;;;10056612;28;20045;-70
2023/12/05 03:17:14;;;;;;;2.28;1.02;;;5.10;99.90;;;;;;10064478;28;20624;-69
2023/12/05 03:22:05;;;;;;;1.52;1.17;;;5.10;99.90;;;;;;10070958;28;20132;-71
2023/12/05 03:26:56;;;;;;;1.45;1.02;;;5.10;99.90;;;;;;10079478;28;20048;-68
2023/12/05 03:31:46;;;;;;;1.83;1.10;;;5.10;99.90;;;;;;10076387;28;20037;-68
2023/12/05 03:36:37;;;;;;;1.92;1.17;;;5.20;99.90;;;;;;10072706;28;20574;-68
2023/12/05 03:41:28;;;;;;;1.85;0.98;;;5.20;99.90;;;;;;10065820;28;20029;-68
2023/12/05 03:46:18;;;;;;;1.08;0.80;;;5.20;99.90;;;;;;10064935;28;20029;-68
2023/12/05 03:51:09;;;;;;;2.88;1.25;;;5.20;99.90;;;;;;10072511;28;20355;-69
2023/12/05 03:56:00;;;;;;;1.83;1.65;;;5.30;99.90;;;;;;10070366;28;20614;-68
2023/12/05 04:00:50;;;;;;;1.75;0.93;;;5.40;99.90;;;;;;10054609;28;20503;-70
2023/12/05 04:05:41;;;;;;;1.95;0.70;;;5.40;99.90;;;;;;10076582;28;20037;-70
2023/12/05 04:10:32;;;;;;;1.25;0.55;;;5.50;99.90;;;;;;10072928;28;20037;-68
2023/12/05 04:15:23;;;;;;;0.77;0.65;;;5.50;99.90;;;;;;10067884;28;20041;-69
2023/12/05 04:20:13;;;;;;;1.95;1.25;;;5.50;99.90;;;;;;10061488;28;20442;-68
2023/12/05 04:25:04;;;;;;;0.98;0.73;;;5.60;99.90;;;;;;10067301;28;20037;-69
2023/12/05 04:29:55;;;;;;;0.55;0.50;;;5.70;99.90;;;;;;10066610;28;20507;-68
2023/12/05 04:34:46;;;;;;;1.33;0.70;;;5.70;99.90;;;;;;10065574;28;20052;-68
2023/12/05 04:39:37;;;;;;;0.38;0.32;;;5.70;99.90;;;;;;10065374;28;20075;-69
2023/12/05 04:44:27;;;;;;;1.70;0.70;;;5.70;99.90;;;;;;10062328;28;20099;-69
2023/12/05 04:49:18;;;;;;;1.67;1.13;;;5.70;99.90;;;;;;10063311;28;20037;-68
2023/12/05 04:54:09;;;;;;;0.45;0.38;;;5.60;99.90;;;;;;10067544;28;20067;-69
2023/12/05 04:58:59;;;;;;;0.60;0.60;;;5.60;99.90;;;;;;10063283;28;20083;-69
2023/12/05 05:03:50;;;;;;;1.05;0.50;;;5.70;99.90;;;;;;10066773;28;20033;-67
2023/12/05 05:08:40;;;;;;;0.70;0.40;;;5.60;99.90;;;;;;10066098;28;20609;-67
2023/12/05 05:13:31;;;;;;;2.13;0.50;;;5.70;99.90;;;;;;10066378;28;20044;-68
2023/12/05 05:18:22;;;;;;;1.83;0.57;;;5.70;99.90;;;;;;10060438;28;20052;-67
2023/12/05 05:23:12;;;;;;;0.55;0.43;;;5.70;99.90;;;;;;10069251;28;20407;-68
2023/12/05 05:28:03;;;;;;;0.40;0.40;;;5.70;99.90;;;;;;10062779;28;20033;-70
2023/12/05 05:32:54;;;;;;;0.75;0.50;;;5.70;99.90;;;;;;10067619;28;20024;-68
2023/12/05 05:37:44;;;;;;;0.65;0.25;;;5.70;99.90;;;;;;10062489;28;20147;-69
2023/12/05 05:42:35;;;;;;;1.90;0.45;;;5.80;99.90;;;;;;10060280;28;20701;-69
2023/12/05 05:47:25;;;;;;;1.20;0.35;;;5.80;99.90;;;;;;10070159;28;20270;-70
2023/12/05 05:52:16;;;;;;;0.47;0.43;;;5.80;99.90;;;;;;10069360;28;20479;-70
2023/12/05 05:57:07;;;;;;;0.68;0.68;;;5.70;99.90;;;;;;10069454;28;20037;-69
2023/12/05 06:01:58;;;;;;;0.63;0.32;;;5.80;99.90;;;;;;10069243;28;20133;-69
2023/12/05 06:06:49;;;;;;;2.70;0.50;;;5.90;99.90;;;;;;10070669;28;20455;-69
2023/12/05 06:11:39;;;;;;;4.18;0.60;;;5.90;99.90;;;;;;10062291;28;20037;-68
2023/12/05 06:16:30;;;;;;;1.00;0.43;;;5.90;99.90;;;;;;10059954;28;20111;-70
2023/12/05 06:21:20;;;;;;;1.38;0.57;;;5.90;99.90;;;;;;10061604;28;20080;-69
2023/12/05 06:26:11;;;;;;;1.73;0.32;;;5.90;99.90;;;;;;10067346;28;20056;-69
2023/12/05 06:31:02;;;;;;;1.98;1.38;;;5.90;99.90;;;;;;10063664;28;20519;-70
2023/12/05 06:35:53;;;;;;;2.33;0.88;;;5.90;99.90;;;;;;10059875;28;20103;-69
2023/12/05 06:40:44;;;;;;;1.95;0.50;;;5.90;99.90;;;;;;10059463;28;20029;-68
2023/12/05 06:45:34;;;;;;;2.10;0.43;;;6.00;99.90;;;;;;10055289;28;20030;-69
2023/12/05 06:50:25;;;;;;;1.67;0.50;;;6.00;99.90;;;;;;10066725;28;20038;-68
2023/12/05 06:55:16;;;;;;;1.92;0.75;;;5.90;99.90;;;;;;10057722;28;20045;-69
2023/12/05 07:00:08;;;;;;;5.88;0.93;;;5.90;99.90;;;;;;10061701;28;20051;-71
2023/12/05 07:05:02;;;;;;;1.58;0.50;;;5.90;99.90;;;;;;10059486;28;20038;-69
2023/12/05 07:09:52;;;;;;;1.15;0.90;;;5.90;99.90;;;;;;10064480;28;20083;-72
2023/12/05 07:14:43;;;;;;;3.75;0.90;;;5.90;99.90;;;;;;10058394;28;20099;-70
2023/12/05 07:19:34;;;;;;;0.90;0.50;;;6.00;99.90;;;;;;10055883;28;20061;-67
2023/12/05 07:24:24;;;;;;;2.03;0.93;;;5.90;99.90;;;;;;10058990;28;20111;-68
2023/12/05 07:29:15;;;;;;;2.25;0.90;;;6.00;99.90;;;;;;10059405;28;20095;-68
2023/12/05 07:34:06;;;;;;;1.40;0.70;;;6.00;99.90;;;;;;10056401;28;20115;-68
2023/12/05 07:38:56;;;;;;;1.30;0.70;;;6.00;99.90;;;;;;10061387;28;20029;-71
2023/12/05 07:43:49;;;;;;;1.33;0.60;;;5.90;99.90;;;;;;10057068;28;20033;-67
2023/12/05 07:48:39;;;;;;;0.80;0.55;;;6.00;99.90;;;;;;10062373;28;20084;-71
2023/12/05 07:53:30;;;;;;;2.20;0.85;;;6.00;99.90;;;;;;10069662;28;20029;-68
2023/12/05 07:58:21;;;;;;;2.60;1.35;;;6.10;99.90;;;;;;10063580;28;20049;-66
2023/12/05 08:03:13;;;;;;;0.73;0.70;;;6.10;99.90;;;;;;10072400;28;20510;-67
2023/12/05 08:08:04;;;;;;;2.00;0.70;;;6.20;99.90;;;;;;10073927;28;20040;-70
2023/12/05 08:12:57;;;;;;;2.30;1.10;;;6.20;99.90;;;;;;10062142;28;20489;-73
2023/12/05 08:17:48;;;;;;;1.08;0.80;;;6.20;99.90;;;;;;10058798;28;20044;-75
2023/12/05 08:22:40;;;;;;;0.93;0.60;;;6.30;99.90;;;;;;10067899;28;20396;-77
2023/12/05 08:27:32;;;;;;;1.77;0.80;;;6.30;99.90;;;;;;10053807;28;20036;-77
2023/12/05 08:32:25;;;;;;;1.77;1.27;;;6.30;99.90;;;;;;10069926;28;20128;-75
2023/12/05 08:37:16;;;;;;;2.95;1.40;;;6.40;99.90;;;;;;10074976;28;20595;-74
2023/12/05 08:42:07;;;;;;;2.97;1.25;;;6.40;99.90;;;;;;10074587;28;20041;-75
2023/12/05 08:46:58;;;;;;;1.20;0.60;;;6.40;99.90;;;;;;10052613;28;20039;-69
2023/12/05 08:51:48;;;;;;;1.15;1.02;;;6.50;99.90;;;;;;10066389;28;20113;-68
2023/12/05 08:56:39;;;;;;;2.90;1.15;;;6.60;99.90;;;;;;10063019;28;20667;-70
2023/12/05 09:01:30;;;;;;;0.82;0.70;;;6.60;99.90;;;;;;10070667;28;20030;-68
2023/12/05 09:06:20;;;;;;;2.20;0.68;;;6.80;99.90;;;;;;10067631;28;20033;-71
2023/12/05 09:11:12;;;;;;;4.35;1.00;;;6.80;99.90;;;;;;10061834;28;20029;-71
2023/12/05 09:16:03;;;;;;;0.85;0.45;;;6.90;99.90;;;;;;10068135;28;20048;-71
2023/12/05 09:20:54;;;;;;;2.40;0.50;;;7.00;99.90;;;;;;10065834;28;20024;-72
2023/12/05 09:25:45;;;;;;;0.65;0.65;;;7.10;99.90;;;;;;10072824;28;20034;-73
2023/12/05 09:30:36;;;;;;;0.90;0.60;;;7.20;99.90;;;;;;10065852;28;20616;-75
2023/12/05 09:35:27;;;;;;;1.13;0.65;;;7.20;99.90;;;;;;10041925;28;20058;-73
2023/12/05 09:40:17;;;;;;;2.22;0.75;;;7.30;99.90;;;;;;10064610;28;20029;-75
2023/12/05 09:45:15;;;;;;;1.45;0.77;;;7.40;99.90;;;;;;10069021;28;20021;-71
2023/12/05 09:50:06;;;;;;;1.73;0.63;;;7.30;99.90;;;;;;10050689;28;20022;-76
2023/12/05 09:54:58;;;;;;;2.45;0.65;;;7.40;99.90;;;;;;10063334;28;20051;-76
2023/12/05 09:59:49;;;;;;;0.50;0.40;;;7.40;99.90;;;;;;10075345;28;20018;-77
2023/12/05 10:04:44;;;;;;;1.45;0.55;;;7.30;99.90;;;;;;10075056;28;20037;-77
2023/12/05 10:09:36;;;;;;;0.88;0.75;;;7.40;99.90;;;;;;10073264;28;20111;-75
2023/12/05 10:14:28;;;;;;;1.88;0.68;;;7.50;99.90;;;;;;10064482;28;20037;-76
2023/12/05 10:19:21;;;;;;;0.50;0.40;;;7.50;99.90;;;;;;10057035;28;20035;-71
2023/12/05 10:24:12;;;;;;;1.08;0.50;;;7.50;99.90;;;;;;10076589;28;20025;-75
2023/12/05 10:29:03;;;;;;;2.17;0.70;;;7.60;99.90;;;;;;10066044;28;20033;-74
2023/12/05 10:34:04;;;;;;;0.30;0.30;;;7.60;99.90;;;;;;10059196;28;20133;-67
2023/12/05 10:38:55;;;;;;;0.40;0.32;;;7.60;99.90;;;;;;10084309;28;20060;-67
2023/12/05 10:43:49;;;;;;;0.47;0.47;;;7.60;99.90;;;;;;10068899;28;20502;-74
2023/12/05 10:48:39;;;;;;;1.10;0.50;;;7.70;99.90;;;;;;10067740;28;20017;-73
2023/12/05 10:53:37;;;;;;;0.98;0.25;;;7.60;99.90;;;;;;10063598;28;20033;-72
2023/12/05 10:58:27;;;;;;;1.10;1.00;;;7.70;99.90;;;;;;10066826;28;20345;-74
2023/12/05 11:03:19;;;;;;;0.43;0.40;;;7.70;99.90;;;;;;10067848;28;20492;-73
2023/12/05 11:08:09;;;;;;;0.52;0.40;;;7.80;99.90;;;;;;10047869;28;20026;-69
2023/12/05 11:13:01;;;;;;;1.23;0.70;;;7.80;99.90;;;;;;10064836;28;20029;-74
2023/12/05 11:18:05;;;;;;;2.00;0.75;;;7.80;99.90;;;;;;10077724;28;20114;-71
2023/12/05 11:23:12;;;;;;;0.98;0.68;;;7.80;99.90;;;;;;10085025;28;20037;-74
2023/12/05 11:28:30;;;;;;;1.48;1.15;;;7.90;99.90;;;;;;10051837;28;20121;-72
2023/12/05 11:33:47;;;;;;;1.60;0.90;;;7.80;99.90;;;;;;10051807;28;20033;-72
2023/12/05 11:38:38;;;;;;;1.02;0.50;;;7.70;99.90;;;;;;10080211;28;20052;-73
2023/12/05 11:43:29;;;;;;;4.45;0.85;;;7.80;99.90;;;;;;10084069;28;20017;-72
2023/12/05 11:48:24;;;;;;;2.53;0.95;;;7.80;99.90;;;;;;10059855;28;20025;-73
2023/12/05 11:53:17;;;;;;;2.85;1.13;;;7.80;99.90;;;;;;10073619;28;20032;-70
2023/12/05 11:58:33;;;;;;;2.63;1.13;;;7.80;99.90;;;;;;10066092;28;20072;-70
2023/12/05 12:03:27;;;;;;;2.67;1.52;;;7.80;99.90;;;;;;10069298;28;20029;-75
2023/12/05 12:08:19;;;;;;;4.53;1.17;;;7.80;99.90;;;;;;10064594;28;20053;-76
2023/12/05 12:13:09;;;;;;;3.60;1.25;;;7.80;99.90;;;;;;10065804;28;20529;-71
2023/12/05 12:18:00;;;;;;;3.15;1.50;;;7.80;99.90;;;;;;10063035;28;20120;-70
2023/12/05 12:22:51;;;;;;;3.28;1.27;;;7.80;99.90;;;;;;10063779;28;20072;-69
2023/12/05 12:27:42;;;;;;;0.95;0.80;;;7.80;99.90;;;;;;10068362;28;20398;-69
2023/12/05 12:32:39;;;;;;;2.22;1.05;;;7.90;99.90;;;;;;10066782;28;20116;-69
2023/12/05 12:37:30;;;;;;;1.95;1.33;;;7.90;99.90;;;;;;10056952;28;20048;-71
2023/12/05 12:42:21;;;;;;;1.90;1.73;;;7.90;99.90;;;;;;10061692;28;20029;-70
2023/12/05 12:47:13;;;;;;;3.63;1.35;;;7.90;99.90;;;;;;10063788;28;20051;-71
2023/12/05 12:52:04;;;;;;;2.42;1.35;;;7.90;99.90;;;;;;10064059;28;20036;-70
2023/12/05 12:56:55;;;;;;;3.30;1.70;;;7.90;99.90;;;;;;10069219;28;20041;-70
2023/12/05 13:01:46;;;;;;;2.15;1.20;;;8.00;99.90;;;;;;10045872;28;20029;-70
2023/12/05 13:06:46;;;;;;;2.08;1.02;;;7.90;99.90;;;;;;10073522;28;20622;-71
2023/12/05 13:11:37;;;;;;;4.80;1.65;;;7.90;99.90;;;;;;10074246;28;20036;-69
2023/12/05 13:16:27;;;;;;;1.33;1.00;;;7.90;99.90;;;;;;10071255;28;20041;-73
2023/12/05 13:21:31;;;;;;;3.83;1.17;;;7.90;99.90;;;;;;10065246;28;20014;-70
2023/12/05 13:26:22;;;;;;;2.13;0.95;;;7.90;99.90;;;;;;10063368;28;20494;-72
2023/12/05 13:31:13;;;;;;;2.13;0.80;;;8.00;99.90;;;;;;10071302;28;20039;-71
2023/12/05 13:36:04;;;;;;;1.70;0.85;;;8.00;99.90;;;;;;10081370;28;20053;-70
2023/12/05 13:40:55;;;;;;;2.88;1.05;;;8.00;99.90;;;;;;10081274;28;20030;-69
2023/12/05 13:45:45;;;;;;;1.25;0.75;;;8.00;99.90;;;;;;10058077;28;20033;-77
2023/12/05 13:50:36;;;;;;;2.35;0.85;;;8.00;99.90;;;;;;10071727;28;20022;-69
2023/12/05 13:55:27;;;;;;;1.63;1.00;;;7.90;99.90;;;;;;10075731;28;20075;-68
2023/12/05 14:00:18;;;;;;;0.93;0.50;;;7.90;99.90;;;;;;10060019;28;20032;-70
2023/12/05 14:05:08;;;;;;;2.53;0.93;;;7.90;99.90;;;;;;10060064;28;20044;-67
2023/12/05 14:10:00;;;;;;;3.40;1.17;;;7.90;99.90;;;;;;10058971;28;20033;-75
2023/12/05 14:14:51;;;;;;;4.07;1.15;;;7.90;99.90;;;;;;10062335;28;20039;-74
2023/12/05 14:19:42;;;;;;;4.13;1.13;;;7.90;99.90;;;;;;10063427;28;20035;-73
2023/12/05 14:24:32;;;;;;;1.33;0.70;;;7.90;99.90;;;;;;10064271;28;20482;-74
2023/12/05 14:29:23;;;;;;;1.50;0.88;;;7.90;99.90;;;;;;10055087;28;20075;-73
2023/12/05 14:34:14;;;;;;;2.50;0.75;;;7.90;99.90;;;;;;10058095;28;20110;-74
2023/12/05 14:39:04;;;;;;;5.20;1.48;;;7.90;99.90;;;;;;10059770;28;20144;-74
2023/12/05 14:43:55;;;;;;;4.32;1.05;;;7.90;99.90;;;;;;10060091;28;20025;-72
2023/12/05 14:48:46;;;;;;;4.10;0.82;;;7.90;99.90;;;;;;10063638;28;20029;-72
2023/12/05 14:53:37;;;;;;;2.75;1.20;;;7.90;99.90;;;;;;10063115;28;20076;-77
2023/12/05 14:58:27;;;;;;;3.15;1.00;;;7.80;99.90;;;;;;10059801;28;20043;-73
2023/12/05 15:03:18;;;;;;;2.90;0.98;;;7.80;99.90;;;;;;10072886;28;20022;-73
2023/12/05 15:08:09;;;;;;;4.50;1.10;;;7.80;99.90;;;;;;10064655;28;20034;-70
2023/12/05 15:12:59;;;;;;;1.00;0.80;;;7.80;99.90;;;;;;10064077;28;20117;-69
2023/12/05 15:17:50;;;;;;;2.22;1.50;;;7.80;99.90;;;;;;10063226;28;20037;-68
2023/12/05 15:22:45;;;;;;;3.45;1.10;;;7.80;99.90;;;;;;10061498;28;20053;-71
2023/12/05 15:27:35;;;;;;;2.33;0.85;;;7.80;99.90;;;;;;10065268;28;20049;-69
2023/12/05 15:32:26;;;;;;;1.73;0.90;;;7.80;99.90;;;;;;10068205;28;20030;-72
2023/12/05 15:37:17;;;;;;;3.08;1.00;;;7.70;99.90;;;;;;10068749;28;20057;-72
2023/12/05 15:42:08;;;;;;;2.90;1.00;;;7.70;99.90;;;;;;10065953;28;20026;-71
2023/12/05 15:46:58;;;;;;;0.70;0.52;;;7.70;99.90;;;;;;10072001;28;20022;-67
2023/12/05 15:51:49;;;;;;;1.80;0.98;;;7.70;99.90;;;;;;10067889;28;20379;-69
2023/12/05 15:56:40;;;;;;;1.00;0.68;;;7.80;99.90;;;;;;10069467;28;20124;-73
2023/12/05 16:01:31;;;;;;;2.53;0.70;;;7.70;99.90;;;;;;10044942;28;20120;-71
2023/12/05 16:06:21;;;;;;;1.42;0.75;;;7.70;99.90;;;;;;10051179;28;20068;-77
2023/12/05 16:11:16;;;;;;;0.80;0.80;;;7.70;99.90;;;;;;10077475;28;20496;-71
2023/12/05 16:16:08;;;;;;;1.55;0.70;;;7.70;99.90;;;;;;10067567;28;20083;-67
2023/12/05 16:20:58;;;;;;;1.17;0.63;;;7.60;99.90;;;;;;10059115;28;20029;-69
2023/12/05 16:25:50;;;;;;;4.05;0.70;;;7.60;99.90;;;;;;10063753;28;20503;-69
2023/12/05 16:30:41;;;;;;;0.98;0.60;;;7.60;99.90;;;;;;10054029;28;20053;-69
2023/12/05 16:35:31;;;;;;;0.43;0.40;;;7.70;99.90;;;;;;10065852;28;20073;-71
2023/12/05 16:40:22;;;;;;;4.53;0.60;;;7.60;99.90;;;;;;10071369;28;20032;-69
2023/12/05 16:45:14;;;;;;;0.77;0.75;;;7.60;99.90;;;;;;10066489;28;20156;-74
2023/12/05 16:50:05;;;;;;;2.13;0.50;;;7.50;99.90;;;;;;10051549;28;20025;-68
2023/12/05 16:55:00;;;;;;;1.08;0.50;;;7.50;99.90;;;;;;10074352;28;20067;-68
2023/12/05 16:59:52;;;;;;;2.10;0.50;;;7.40;99.90;;;;;;10048290;28;20087;-71
2023/12/05 17:04:42;;;;;;;0.77;0.50;;;7.50;99.90;;;;;;10066619;28;20479;-68
2023/12/05 17:09:35;;;;;;;0.95;0.60;;;7.40;99.90;;;;;;10063166;28;20033;-68
2023/12/05 17:14:26;;;;;;;1.13;0.80;;;7.40;99.90;;;;;;10063268;28;20098;-70
2023/12/05 17:19:16;;;;;;;0.95;0.65;;;7.40;99.90;;;;;;10064321;28;20407;-71
2023/12/05 17:24:07;;;;;;;0.43;0.30;;;7.40;99.90;;;;;;10068269;28;20025;-70
2023/12/05 17:28:58;;;;;;;0.93;0.52;;;7.40;99.90;;;;;;10064105;28;20033;-72
2023/12/05 17:33:48;;;;;;;1.05;0.40;;;7.30;99.90;;;;;;10057991;28;20053;-69
2023/12/05 17:38:39;;;;;;;1.10;0.60;;;7.30;99.90;;;;;;10080364;28;20041;-74
2023/12/05 17:43:34;;;;;;;2.20;1.38;;;7.30;99.90;;;;;;10080676;28;20021;-73
2023/12/05 17:48:26;;;;;;;1.70;0.60;;;7.30;99.90;;;;;;10081779;28;20059;-71
2023/12/05 17:53:20;;;;;;;0.90;0.60;;;7.30;99.90;;;;;;10072323;28;20039;-72
2023/12/05 17:58:10;;;;;;;0.95;0.70;;;7.30;99.90;;;;;;10067314;28;20041;-72
2023/12/05 18:03:02;;;;;;;1.83;0.85;;;7.30;99.90;;;;;;10067215;28;20128;-71
2023/12/05 18:07:52;;;;;;;1.02;0.80;;;7.40;99.90;;;;;;10067456;28;20136;-70
2023/12/05 18:12:43;;;;;;;0.77;0.50;;;7.30;99.90;;;;;;10056513;28;20108;-69
2023/12/05 18:17:34;;;;;;;1.15;0.68;;;7.30;99.90;;;;;;10064358;28;20068;-70
2023/12/05 18:22:25;;;;;;;2.03;0.50;;;7.20;99.90;;;;;;10067345;28;20032;-70
2023/12/05 18:27:16;;;;;;;1.98;0.60;;;7.10;99.90;;;;;;10045321;28;20087;-69
2023/12/05 18:32:08;;;;;;;0.52;0.38;;;7.20;99.90;;;;;;10058509;28;20407;-71
2023/12/05 18:36:58;;;;;;;0.32;0.32;;;7.10;99.90;;;;;;10070930;28;20505;-70
2023/12/05 18:41:50;;;;;;;1.13;0.55;;;7.00;99.90;;;;;;10068139;28;20116;-73
2023/12/05 18:46:41;;;;;;;1.45;0.90;;;7.10;99.90;;;;;;10074212;28;20029;-70
2023/12/05 18:51:32;;;;;;;1.20;0.65;;;7.10;99.90;;;;;;10059526;28;20025;-69
2023/12/05 18:56:23;;;;;;;0.85;0.50;;;7.00;99.90;;;;;;10068776;28;20041;-71
2023/12/05 19:01:14;;;;;;;0.98;0.75;;;7.00;99.90;;;;;;10065593;28;20022;-70
2023/12/05 19:06:09;;;;;;;0.80;0.50;;;7.10;99.90;;;;;;10060626;28;20029;-69
2023/12/05 19:11:04;;;;;;;1.08;0.40;;;7.10;99.90;;;;;;10052367;28;20101;-69
2023/12/05 19:15:55;;;;;;;1.38;0.70;;;7.00;99.90;;;;;;10042093;28;20447;-69
2023/12/05 19:20:49;;;;;;;0.63;0.45;;;7.00;99.90;;;;;;10066100;28;20033;-69
2023/12/05 19:25:41;;;;;;;1.25;0.30;;;7.00;99.90;;;;;;10065774;28;20104;-69
2023/12/05 19:30:31;;;;;;;1.85;0.50;;;6.90;99.90;;;;;;10060294;28;20025;-68
2023/12/05 19:35:22;;;;;;;1.30;0.50;;;7.00;99.90;;;;;;10057427;28;20046;-69
2023/12/05 19:40:13;;;;;;;1.10;0.70;;;6.90;99.90;;;;;;10076478;28;20036;-68
2023/12/05 19:45:04;;;;;;;0.82;0.50;;;6.90;99.90;;;;;;10074244;28;20022;-69
2023/12/05 19:49:58;;;;;;;0.70;0.40;;;6.90;99.90;;;;;;10056797;28;20083;-68
2023/12/05 19:54:51;;;;;;;1.17;0.50;;;6.90;99.90;;;;;;10060002;28;20077;-69
2023/12/05 19:59:44;;;;;;;1.08;0.50;;;6.90;99.90;;;;;;10061942;28;20018;-68
2023/12/05 20:04:35;;;;;;;2.20;0.45;;;6.80;99.90;;;;;;10065837;28;20041;-67
2023/12/05 20:09:25;;;;;;;0.90;0.85;;;6.80;99.90;;;;;;10075677;28;20597;-70
2023/12/05 20:14:19;;;;;;;1.15;0.70;;;6.90;99.90;;;;;;10056333;28;20030;-69
2023/12/05 20:19:18;;;;;;;2.55;0.80;;;6.80;99.90;;;;;;10081420;28;20104;-68
2023/12/05 20:24:11;;;;;;;1.35;0.50;;;6.90;99.90;;;;;;10084203;28;20375;-68
2023/12/05 20:29:04;;;;;;;0.75;0.55;;;6.90;99.90;;;;;;10051715;28;20036;-68
2023/12/05 20:33:58;;;;;;;1.15;0.70;;;6.90;99.90;;;;;;10064702;28;20498;-70
2023/12/05 20:38:53;;;;;;;0.93;0.60;;;6.90;99.90;;;;;;10079243;28;20052;-71
2023/12/05 20:44:07;;;;;;;0.50;0.50;;;7.00;99.90;;;;;;10069399;28;20037;-70
2023/12/05 20:49:10;;;;;;;1.63;0.63;;;6.90;99.90;;;;;;10083632;28;20059;-70
2023/12/05 20:54:11;;;;;;;2.97;0.88;;;6.90;99.90;;;;;;10056169;28;20051;-68
2023/12/05 20:59:10;;;;;;;1.27;0.93;;;7.10;99.90;;;;;;10047424;28;20068;-69
2023/12/05 21:04:02;;;;;;;2.85;0.93;;;7.00;99.90;;;;;;10065491;28;20044;-70
2023/12/05 21:08:53;;;;;;;2.88;0.90;;;7.00;99.90;;;;;;10065495;28;20026;-70
2023/12/05 21:13:44;;;;;;;1.45;0.93;;;7.00;99.90;;;;;;10067410;28;20025;-68
2023/12/05 21:18:34;;;;;;;2.28;1.05;;;7.00;99.90;;;;;;10070244;28;20057;-67
2023/12/05 21:23:28;;;;;;;1.00;0.70;;;7.00;99.90;;;;;;10074591;28;20404;-69
2023/12/05 21:28:20;;;;;;;1.65;0.88;;;7.00;99.90;;;;;;10070427;28;20522;-68
2023/12/05 21:33:11;;;;;;;2.45;0.82;;;7.00;99.90;;;;;;10060301;28;20035;-68
2023/12/05 21:38:02;;;;;;;1.20;0.77;;;7.00;99.90;;;;;;10068117;28;20112;-68
2023/12/05 21:42:53;;;;;;;0.80;0.60;;;7.00;99.90;;;;;;10065306;28;20065;-70
2023/12/05 21:47:44;;;;;;;2.15;0.88;;;7.10;99.90;;;;;;10067610;28;20033;-69
2023/12/05 21:52:35;;;;;;;1.15;0.63;;;7.10;99.90;;;;;;10071136;28;20827;-69
2023/12/05 21:57:29;;;;;;;2.20;0.52;;;7.10;99.90;;;;;;10067403;28;20065;-69
2023/12/05 22:02:20;;;;;;;2.10;0.75;;;7.10;99.90;;;;;;10067110;28;20111;-69
2023/12/05 22:07:11;;;;;;;2.55;0.88;;;7.10;99.90;;;;;;10060358;28;20080;-68
2023/12/05 22:12:02;;;;;;;0.95;0.82;;;7.10;99.90;;;;;;10062661;28;20031;-71
2023/12/05 22:16:52;;;;;;;1.23;0.68;;;7.10;99.90;;;;;;10067333;28;20033;-68
2023/12/05 22:21:44;;;;;;;1.40;0.70;;;7.20;99.90;;;;;;10068168;28;20099;-68
2023/12/05 22:26:35;;;;;;;1.00;0.70;;;7.10;99.90;;;;;;10068619;28;20029;-69
2023/12/05 22:31:26;;;;;;;1.42;0.77;;;7.10;99.90;;;;;;10059520;28;20057;-70
2023/12/05 22:36:21;;;;;;;1.15;0.60;;;7.00;99.90;;;;;;10052600;28;20037;-70
2023/12/05 22:41:11;;;;;;;1.92;0.98;;;7.00;99.90;;;;;;10060273;28;20022;-69
2023/12/05 22:46:10;;;;;;;2.20;0.50;;;7.10;99.90;;;;;;10060098;28;20044;-68
2023/12/05 22:51:04;;;;;;;1.15;0.75;;;7.10;99.90;;;;;;10042570;28;20033;-69
2023/12/05 22:55:54;;;;;;;1.05;0.80;;;7.10;99.90;;;;;;10063201;28;20499;-68
2023/12/05 23:00:46;;;;;;;2.70;1.00;;;7.10;99.90;;;;;;10062687;28;20033;-70
2023/12/05 23:05:36;;;;;;;0.80;0.60;;;7.10;99.90;;;;;;10060228;28;20390;-70
2023/12/05 23:10:28;;;;;;;1.23;0.70;;;7.10;99.90;;;;;;10045770;28;20125;-69
2023/12/05 23:15:18;;;;;;;2.38;0.90;;;7.10;99.90;;;;;;10061720;28;20549;-68
2023/12/05 23:20:09;;;;;;;2.03;0.90;;;7.10;99.90;;;;;;10059397;28;20041;-68
2023/12/05 23:25:00;;;;;;;0.82;0.70;;;7.20;99.90;;;;;;10059831;28;20029;-69
2023/12/05 23:29:51;;;;;;;1.15;0.70;;;7.10;99.90;;;;;;10059300;28;20499;-69
2023/12/05 23:34:41;;;;;;;1.90;0.65;;;7.20;99.90;;;;;;10060495;28;20061;-69
2023/12/05 23:39:32;;;;;;;0.95;0.75;;;7.20;99.90;;;;;;10065407;28;20052;-69
2023/12/05 23:44:23;;;;;;;2.17;1.33;;;7.10;99.90;;;;;;10074858;28;20036;-69
2023/12/05 23:49:16;;;;;;;1.17;0.77;;;7.10;99.90;;;;;;10071052;28;20093;-68
2023/12/05 23:54:10;;;;;;;1.48;0.70;;;7.20;99.90;;;;;;10073576;28;20376;-72
2023/12/05 23:59:03;;;;;;;1.65;0.98;;;7.20;99.90;;;;;;10074198;28;20039;-68
